Time;durP1;ratioP1;P1;durP2;ratioP2;P2;SDS_P1;SDS_P2;PMS_P1;PMS_P2;Temp;Humidity;BMP_temperature;BMP_pressure;BME280_temperature;BME280_humidity;BME280_pressure;Samples;Min_cycle;Max_cycle;Signal;HPM_P1;HPM_P2
2023/08/05 00:01:24;;;;;;;2.92;1.88;;;15.80;99.90;;;;;;5036194;28;20053;-84
2023/08/05 00:03:50;;;;;;;4.63;2.58;;;15.70;99.90;;;;;;5034723;28;20053;-83
2023/08/05 00:06:16;;;;;;;4.90;2.20;;;15.60;99.90;;;;;;5035973;28;20022;-82
2023/08/05 00:08:43;;;;;;;7.47;3.13;;;15.40;99.90;;;;;;5036067;28;20467;-83
2023/08/05 00:11:09;;;;;;;5.40;2.67;;;15.30;99.90;;;;;;5036285;28;20036;-84
2023/08/05 00:13:36;;;;;;;5.57;2.75;;;15.30;99.90;;;;;;5035327;28;20048;-83
2023/08/05 00:16:06;;;;;;;5.85;2.35;;;15.30;99.90;;;;;;5038202;28;20026;-83
2023/08/05 00:18:32;;;;;;;7.35;3.03;;;15.10;99.90;;;;;;5037092;28;20026;-83
2023/08/05 00:20:59;;;;;;;6.10;2.95;;;15.10;99.90;;;;;;5033100;28;20038;-83
2023/08/05 00:23:25;;;;;;;6.97;3.00;;;15.10;99.90;;;;;;5032286;28;20029;-83
2023/08/05 00:25:51;;;;;;;4.97;3.30;;;15.20;99.90;;;;;;5034112;28;20048;-83
2023/08/05 00:28:17;;;;;;;7.65;2.90;;;15.10;99.90;;;;;;5036521;28;20028;-82
2023/08/05 00:30:43;;;;;;;4.50;2.50;;;15.00;99.90;;;;;;5036642;28;20033;-83
2023/08/05 00:33:10;;;;;;;5.07;3.15;;;14.90;99.90;;;;;;5034438;28;20045;-83
2023/08/05 00:35:36;;;;;;;6.72;3.42;;;14.80;99.90;;;;;;5035148;28;20045;-84
2023/08/05 00:38:02;;;;;;;7.13;4.05;;;14.70;99.90;;;;;;5036955;28;20033;-83
2023/08/05 00:40:29;;;;;;;5.82;3.08;;;14.80;99.90;;;;;;5033275;28;20060;-82
2023/08/05 00:42:55;;;;;;;7.50;3.47;;;14.60;99.90;;;;;;5041286;28;20040;-82
2023/08/05 00:45:21;;;;;;;4.40;3.17;;;14.50;99.90;;;;;;5052914;28;20040;-82
2023/08/05 00:47:47;;;;;;;5.35;3.80;;;14.40;99.90;;;;;;5049332;28;20052;-83
2023/08/05 00:50:14;;;;;;;7.68;3.13;;;14.30;99.90;;;;;;5047949;28;20042;-83
2023/08/05 00:52:41;;;;;;;4.88;3.00;;;14.20;99.90;;;;;;5036402;28;20052;-82
2023/08/05 00:55:08;;;;;;;4.72;3.03;;;14.10;99.90;;;;;;5037183;28;20402;-83
2023/08/05 00:57:35;;;;;;;5.32;3.00;;;14.00;99.90;;;;;;5050254;28;20580;-83
2023/08/05 01:00:01;;;;;;;5.35;2.97;;;14.00;99.90;;;;;;5052774;28;20056;-82
2023/08/05 01:02:27;;;;;;;5.55;3.35;;;13.90;99.90;;;;;;5047307;28;20478;-82
2023/08/05 01:04:54;;;;;;;5.53;3.20;;;13.80;99.90;;;;;;5030989;28;20029;-83
2023/08/05 01:07:23;;;;;;;9.70;2.58;;;13.80;99.90;;;;;;5042858;28;20033;-83
2023/08/05 01:09:49;;;;;;;6.07;3.35;;;13.80;99.90;;;;;;5035091;28;20112;-83
2023/08/05 01:12:15;;;;;;;5.28;3.30;;;13.80;99.90;;;;;;5037696;28;20036;-82
2023/08/05 01:14:41;;;;;;;7.25;3.20;;;13.70;99.90;;;;;;5035532;28;20033;-83
2023/08/05 01:17:07;;;;;;;7.13;2.88;;;13.70;99.90;;;;;;5035512;28;20049;-84
2023/08/05 01:19:35;;;;;;;5.10;3.40;;;13.60;99.90;;;;;;5035424;28;20034;-83
2023/08/05 01:22:11;;;;;;;8.43;3.90;;;13.60;99.90;;;;;;5039702;28;20037;-84
2023/08/05 01:24:48;;;;;;;5.93;3.22;;;13.40;99.90;;;;;;5030361;28;20041;-83
2023/08/05 01:27:18;;;;;;;8.73;3.90;;;13.40;99.90;;;;;;5034564;28;20049;-83
2023/08/05 01:29:44;;;;;;;6.07;3.53;;;13.40;1.00;;;;;;5033003;28;20045;-83
2023/08/05 01:32:11;;;;;;;11.07;3.42;;;13.40;1.00;;;;;;5035216;28;20040;-83
2023/08/05 01:34:37;;;;;;;13.73;5.45;;;13.40;1.00;;;;;;5029747;28;20605;-83
2023/08/05 01:37:04;;;;;;;7.00;3.58;;;13.50;1.00;;;;;;5052272;28;20482;-83
2023/08/05 01:39:30;;;;;;;5.47;3.50;;;13.50;1.00;;;;;;5036162;28;20041;-84
2023/08/05 01:41:56;;;;;;;5.32;3.30;;;13.40;1.00;;;;;;5036927;28;20033;-84
2023/08/05 01:44:22;;;;;;;10.48;3.45;;;13.50;1.00;;;;;;5033035;28;20044;-84
2023/08/05 01:46:48;;;;;;;8.52;3.38;;;13.40;1.00;;;;;;5034163;28;20029;-84
2023/08/05 01:49:14;;;;;;;8.07;3.00;;;13.20;1.00;;;;;;5033418;28;20029;-84
2023/08/05 01:51:41;;;;;;;8.48;3.95;;;13.20;1.00;;;;;;5031708;28;20049;-84
2023/08/05 01:54:08;;;;;;;7.68;3.60;;;13.10;1.00;;;;;;5035871;28;20390;-82
2023/08/05 01:56:34;;;;;;;7.05;3.20;;;13.00;1.00;;;;;;5050099;28;20053;-82
2023/08/05 01:59:00;;;;;;;6.05;4.00;;;13.00;1.00;;;;;;5050374;28;20045;-82
2023/08/05 02:01:48;;;;;;;9.32;3.75;;;12.90;1.00;;;;;;5036538;28;20375;-83
2023/08/05 02:04:14;;;;;;;7.28;3.90;;;12.90;1.00;;;;;;5036864;28;20044;-83
2023/08/05 02:06:41;;;;;;;7.38;4.28;;;12.80;1.00;;;;;;5039603;28;20033;-82
2023/08/05 02:09:08;;;;;;;5.47;3.22;;;12.80;1.00;;;;;;5037920;28;20034;-83
2023/08/05 02:11:34;;;;;;;8.23;4.30;;;12.80;1.00;;;;;;5038350;28;20044;-81
2023/08/05 02:14:00;;;;;;;6.30;4.60;;;12.80;1.00;;;;;;5050114;28;20046;-83
2023/08/05 02:16:26;;;;;;;6.65;3.83;;;12.70;1.00;;;;;;5039788;28;20032;-83
2023/08/05 02:18:53;;;;;;;7.90;4.20;;;12.70;1.00;;;;;;5039236;28;20036;-83
2023/08/05 02:21:19;;;;;;;11.52;4.13;;;12.60;1.00;;;;;;5040838;28;20060;-83
2023/08/05 02:23:45;;;;;;;7.00;4.18;;;12.60;1.00;;;;;;5037144;28;20494;-84
2023/08/05 02:26:11;;;;;;;6.65;2.92;;;12.50;1.00;;;;;;5041164;28;20033;-82
2023/08/05 02:28:37;;;;;;;6.38;3.47;;;12.50;1.00;;;;;;5035424;28;20033;-84
2023/08/05 02:31:03;;;;;;;8.90;4.28;;;12.60;1.00;;;;;;5039427;28;20037;-84
2023/08/05 02:33:30;;;;;;;8.55;3.88;;;12.60;1.00;;;;;;5034919;28;20390;-81
2023/08/05 02:36:00;;;;;;;6.40;3.50;;;12.50;1.00;;;;;;5039505;28;20032;-82
2023/08/05 02:38:28;;;;;;;6.93;3.72;;;12.40;1.00;;;;;;5036831;28;20494;-83
2023/08/05 02:40:57;;;;;;;9.00;4.05;;;12.40;1.00;;;;;;5038046;28;20417;-83
2023/08/05 02:43:23;;;;;;;6.10;3.92;;;12.50;1.00;;;;;;5035810;28;20049;-82
2023/08/05 02:45:54;;;;;;;6.72;3.95;;;12.40;1.00;;;;;;5042471;28;20454;-83
2023/08/05 02:48:24;;;;;;;5.50;3.28;;;12.40;1.00;;;;;;5038829;28;20041;-84
2023/08/05 02:50:51;;;;;;;8.07;4.88;;;12.30;1.00;;;;;;5022795;28;20056;-84
2023/08/05 02:53:18;;;;;;;6.15;4.10;;;12.30;1.00;;;;;;5037168;28;20492;-84
2023/08/05 02:55:45;;;;;;;10.65;4.57;;;12.40;1.00;;;;;;5034461;28;20049;-83
2023/08/05 02:58:11;;;;;;;5.97;3.55;;;12.40;1.00;;;;;;5035648;28;20059;-83
2023/08/05 03:00:38;;;;;;;8.35;3.00;;;12.30;1.00;;;;;;5036040;28;20072;-82
2023/08/05 03:03:04;;;;;;;7.30;3.58;;;12.20;1.00;;;;;;5039775;28;20040;-83
2023/08/05 03:05:30;;;;;;;6.15;3.53;;;12.10;1.00;;;;;;5053508;28;20406;-83
2023/08/05 03:07:57;;;;;;;5.85;3.60;;;12.10;1.00;;;;;;5055770;28;20049;-83
2023/08/05 03:10:23;;;;;;;7.45;4.03;;;12.10;1.00;;;;;;5051536;28;20382;-82
2023/08/05 03:12:49;;;;;;;6.00;3.75;;;12.10;1.00;;;;;;5032668;28;20800;-84
2023/08/05 03:15:15;;;;;;;8.90;3.83;;;12.20;1.00;;;;;;5049330;28;20045;-83
2023/08/05 03:17:42;;;;;;;5.40;3.78;;;12.10;1.00;;;;;;5038648;28;20041;-83
2023/08/05 03:20:29;;;;;;;6.70;3.42;;;12.10;1.00;;;;;;5056232;28;20041;-82
2023/08/05 03:23:00;;;;;;;10.40;3.90;;;12.20;1.00;;;;;;5029072;28;20049;-83
2023/08/05 03:25:28;;;;;;;7.53;4.43;;;12.10;1.00;;;;;;5060279;28;20041;-83
2023/08/05 03:27:58;;;;;;;7.43;4.60;;;12.10;1.00;;;;;;5054921;28;20048;-83
2023/08/05 03:30:25;;;;;;;4.63;2.88;;;12.00;1.00;;;;;;5043401;28;20291;-84
2023/08/05 03:32:54;;;;;;;8.13;3.53;;;12.10;1.00;;;;;;5058533;28;20052;-83
2023/08/05 03:35:23;;;;;;;5.35;3.33;;;12.10;1.00;;;;;;5056868;28;20048;-83
2023/08/05 03:37:50;;;;;;;6.20;3.08;;;12.10;1.00;;;;;;5039054;28;20067;-82
2023/08/05 03:40:17;;;;;;;9.40;3.85;;;12.10;1.00;;;;;;5052167;28;20498;-83
2023/08/05 03:42:43;;;;;;;4.88;3.08;;;12.20;1.00;;;;;;5035107;28;20040;-83
2023/08/05 03:45:10;;;;;;;7.07;3.47;;;12.10;1.00;;;;;;5040627;28;20041;-82
2023/08/05 03:47:37;;;;;;;5.47;3.15;;;12.10;1.00;;;;;;5032741;28;20049;-83
2023/08/05 03:50:05;;;;;;;6.25;4.18;;;12.00;1.00;;;;;;5039527;28;20382;-84
2023/08/05 03:52:31;;;;;;;6.82;3.42;;;12.10;1.00;;;;;;5034590;28;20451;-85
2023/08/05 03:54:58;;;;;;;5.90;3.03;;;12.10;1.00;;;;;;5037440;28;20394;-82
2023/08/05 03:57:24;;;;;;;4.85;3.13;;;12.10;1.00;;;;;;5037486;28;20379;-84
2023/08/05 03:59:50;;;;;;;6.57;3.40;;;12.10;1.00;;;;;;5034030;28;20045;-83
2023/08/05 04:02:17;;;;;;;5.30;3.63;;;12.00;1.00;;;;;;5037228;28;20049;-83
2023/08/05 04:04:44;;;;;;;6.20;3.05;;;12.00;1.00;;;;;;5032845;28;20344;-83
2023/08/05 04:07:10;;;;;;;6.63;2.63;;;11.90;1.00;;;;;;5035432;28;20046;-83
2023/08/05 04:09:37;;;;;;;4.43;3.08;;;12.00;1.00;;;;;;5034822;28;20034;-83
2023/08/05 04:12:05;;;;;;;6.38;2.75;;;12.00;1.00;;;;;;5035795;28;20029;-83
2023/08/05 04:14:31;;;;;;;9.15;4.18;;;11.90;1.00;;;;;;5037790;28;20068;-83
2023/08/05 04:17:02;;;;;;;3.15;1.88;;;11.80;1.00;;;;;;5037521;28;20048;-83
2023/08/05 04:19:29;;;;;;;6.00;3.05;;;11.90;1.00;;;;;;5054797;28;20044;-83
2023/08/05 04:21:55;;;;;;;6.38;3.47;;;11.90;1.00;;;;;;5032897;28;20041;-83
2023/08/05 04:24:24;;;;;;;4.82;2.75;;;11.90;1.00;;;;;;5032162;28;20058;-82
2023/08/05 04:26:50;;;;;;;4.22;2.88;;;11.80;1.00;;;;;;5048883;28;20413;-84
2023/08/05 04:29:18;;;;;;;6.35;3.05;;;11.80;1.00;;;;;;5041988;28;20029;-82
2023/08/05 04:31:45;;;;;;;4.10;2.63;;;11.80;1.00;;;;;;5039937;28;20589;-84
2023/08/05 04:34:11;;;;;;;4.45;2.75;;;11.80;1.00;;;;;;5036056;28;20025;-84
2023/08/05 04:36:37;;;;;;;4.00;2.70;;;11.80;1.00;;;;;;5040299;28;20502;-84
2023/08/05 04:39:04;;;;;;;4.82;2.90;;;11.80;1.00;;;;;;5035299;28;20475;-84
2023/08/05 04:41:30;;;;;;;4.15;2.40;;;12.00;1.00;;;;;;5033519;28;20385;-84
2023/08/05 04:43:59;;;;;;;6.28;3.33;;;12.10;1.00;;;;;;5037534;28;20060;-84
2023/08/05 04:46:25;;;;;;;4.75;2.22;;;12.20;1.00;;;;;;5035708;28;20366;-84
2023/08/05 04:48:51;;;;;;;4.82;2.67;;;12.20;1.00;;;;;;5033115;28;20046;-83
2023/08/05 04:51:17;;;;;;;5.22;2.75;;;12.20;1.00;;;;;;5036521;28;20417;-82
2023/08/05 04:53:44;;;;;;;5.97;3.53;;;12.20;99.90;;;;;;5035319;28;20865;-83
2023/08/05 04:56:10;;;;;;;4.03;2.15;;;12.20;99.90;;;;;;5034600;28;20463;-83
2023/08/05 04:58:36;;;;;;;3.80;2.00;;;12.30;1.00;;;;;;5034511;28;20056;-82
2023/08/05 05:01:03;;;;;;;5.55;2.60;;;12.60;1.00;;;;;;5037006;28;20048;-83
2023/08/05 05:03:29;;;;;;;6.97;2.80;;;13.10;1.00;;;;;;5036798;28;20037;-83
2023/08/05 05:05:55;;;;;;;3.85;2.10;;;13.60;99.90;;;;;;5030168;28;20052;-84
2023/08/05 05:08:24;;;;;;;4.03;1.48;;;14.40;99.90;;;;;;5033737;28;20037;-85
2023/08/05 05:10:51;;;;;;;1.92;1.13;;;15.00;99.90;;;;;;5034966;28;20046;-83
2023/08/05 05:13:17;;;;;;;6.18;2.70;;;15.40;99.90;;;;;;5033704;28;20044;-84
2023/08/05 05:15:43;;;;;;;5.13;1.85;;;15.80;99.90;;;;;;5032989;28;20442;-83
2023/08/05 05:18:09;;;;;;;3.63;1.77;;;15.90;87.80;;;;;;5034824;28;20371;-83
2023/08/05 05:20:36;;;;;;;3.00;1.60;;;15.40;86.60;;;;;;5035485;28;20398;-84
2023/08/05 05:23:02;;;;;;;3.08;1.63;;;15.20;99.90;;;;;;5037551;28;20029;-83
2023/08/05 05:25:28;;;;;;;4.00;2.55;;;15.50;99.90;;;;;;5049671;28;20037;-83
2023/08/05 05:27:54;;;;;;;5.40;1.95;;;16.30;99.90;;;;;;5036330;28;20030;-84
2023/08/05 05:30:20;;;;;;;6.40;2.70;;;17.00;34.80;;;;;;5035338;28;20040;-84
2023/08/05 05:32:46;;;;;;;3.63;1.50;;;17.40;1.00;;;;;;5032391;28;20683;-84
2023/08/05 05:35:12;;;;;;;4.40;1.88;;;17.60;1.00;;;;;;5035257;28;20036;-82
2023/08/05 05:37:38;;;;;;;3.83;1.75;;;17.70;1.00;;;;;;5037710;28;20033;-82
2023/08/05 05:40:05;;;;;;;3.28;2.10;;;17.10;1.00;;;;;;5035153;28;20404;-83
2023/08/05 05:42:31;;;;;;;4.03;2.17;;;16.90;1.00;;;;;;5031499;28;20390;-84
2023/08/05 05:44:57;;;;;;;2.67;1.42;;;17.10;1.00;;;;;;5038147;28;20048;-84
2023/08/05 05:47:23;;;;;;;3.55;1.83;;;17.80;1.00;;;;;;5035462;28;20037;-81
2023/08/05 05:49:49;;;;;;;3.78;2.20;;;18.30;1.00;;;;;;5035438;28;20033;-79
2023/08/05 05:52:16;;;;;;;3.15;1.90;;;18.60;1.00;;;;;;5034540;28;20360;-81
2023/08/05 05:54:43;;;;;;;2.78;1.48;;;18.80;1.00;;;;;;5033785;28;20033;-80
2023/08/05 05:57:10;;;;;;;5.90;2.05;;;19.20;99.90;;;;;;5034932;28;20049;-77
2023/08/05 05:59:37;;;;;;;4.00;2.13;;;19.50;99.90;;;;;;5033879;28;20049;-80
2023/08/05 06:02:04;;;;;;;5.97;1.90;;;19.60;99.90;;;;;;5035053;28;20037;-78
2023/08/05 06:04:30;;;;;;;3.85;1.85;;;19.60;99.90;;;;;;5037344;28;20032;-80
2023/08/05 06:06:56;;;;;;;3.08;1.70;;;19.80;99.90;;;;;;5034811;28;20436;-79
2023/08/05 06:09:22;;;;;;;4.05;2.22;;;19.70;99.90;;;;;;5035994;28;20033;-79
2023/08/05 06:11:48;;;;;;;4.10;1.90;;;19.60;99.90;;;;;;5034604;28;20033;-79
2023/08/05 06:14:15;;;;;;;11.68;2.50;;;19.70;99.90;;;;;;5030835;28;20033;-77
2023/08/05 06:16:41;;;;;;;3.53;1.85;;;19.90;99.90;;;;;;5031412;28;20029;-79
2023/08/05 06:19:07;;;;;;;3.50;1.52;;;19.30;99.90;;;;;;5039194;28;20057;-78
2023/08/05 06:21:33;;;;;;;2.83;1.45;;;19.20;99.90;;;;;;5035445;28;20502;-80
2023/08/05 06:23:59;;;;;;;3.97;1.73;;;19.50;99.90;;;;;;5033772;28;20037;-79
2023/08/05 06:26:26;;;;;;;4.50;1.83;;;18.90;99.90;;;;;;5035567;28;20393;-79
2023/08/05 06:28:52;;;;;;;2.88;1.75;;;18.50;99.90;;;;;;5034659;28;20052;-77
2023/08/05 06:31:18;;;;;;;3.38;2.20;;;17.80;1.00;;;;;;5030071;28;20105;-77
2023/08/05 06:33:44;;;;;;;2.75;1.40;;;17.80;1.00;;;;;;5029934;28;20033;-77
2023/08/05 06:36:11;;;;;;;2.83;1.40;;;17.50;1.00;;;;;;5034214;28;20036;-79
2023/08/05 06:38:37;;;;;;;1.92;1.52;;;17.70;1.00;;;;;;5031797;28;20029;-79
2023/08/05 06:41:03;;;;;;;4.22;2.00;;;18.30;1.00;;;;;;5031853;28;20065;-78
2023/08/05 06:43:29;;;;;;;4.07;1.65;;;19.00;99.90;;;;;;5035295;28;20045;-75
2023/08/05 06:45:56;;;;;;;3.30;1.40;;;18.50;1.00;;;;;;5033104;28;20049;-77
2023/08/05 06:48:23;;;;;;;3.05;1.80;;;18.30;1.00;;;;;;5037574;28;20033;-78
2023/08/05 06:50:49;;;;;;;4.75;2.03;;;18.70;1.00;;;;;;5036221;28;20033;-75
2023/08/05 06:53:15;;;;;;;2.70;1.50;;;18.90;99.90;;;;;;5034401;28;20038;-79
2023/08/05 06:55:41;;;;;;;3.10;1.60;;;18.10;1.00;;;;;;5039137;28;20029;-76
2023/08/05 06:58:07;;;;;;;5.00;1.63;;;18.60;1.00;;;;;;5035577;28;20406;-77
2023/08/05 07:00:34;;;;;;;3.58;1.80;;;18.40;99.90;;;;;;5036615;28;20512;-78
2023/08/05 07:03:01;;;;;;;2.90;1.33;;;18.60;99.90;;;;;;5033896;28;20398;-77
2023/08/05 07:05:29;;;;;;;5.78;1.83;;;18.10;1.00;;;;;;5038314;28;20058;-77
2023/08/05 07:07:55;;;;;;;2.58;1.20;;;17.60;1.00;;;;;;5035019;28;20505;-78
2023/08/05 07:10:22;;;;;;;2.13;1.35;;;17.80;1.00;;;;;;5039708;28;20378;-78
2023/08/05 07:12:48;;;;;;;4.38;2.13;;;18.10;1.00;;;;;;5037921;28;20033;-79
2023/08/05 07:15:14;;;;;;;3.22;1.65;;;18.10;1.00;;;;;;5035532;28;20040;-79
2023/08/05 07:17:41;;;;;;;3.45;1.33;;;18.10;1.00;;;;;;5035685;28;20041;-79
2023/08/05 07:20:08;;;;;;;4.50;1.35;;;18.80;1.00;;;;;;5038040;28;20029;-78
2023/08/05 07:22:35;;;;;;;3.88;1.83;;;19.70;99.90;;;;;;5034576;28;20152;-80
2023/08/05 07:25:01;;;;;;;3.97;1.50;;;20.00;99.90;;;;;;5037412;28;20045;-78
2023/08/05 07:27:27;;;;;;;2.40;1.30;;;19.60;99.90;;;;;;5038635;28;20037;-79
2023/08/05 07:29:54;;;;;;;5.47;1.50;;;19.10;99.90;;;;;;5035469;28;20570;-79
2023/08/05 07:32:20;;;;;;;2.15;1.33;;;19.30;99.90;;;;;;5041727;28;20037;-77
2023/08/05 07:34:47;;;;;;;3.60;1.35;;;19.90;99.90;;;;;;5052829;28;20040;-76
2023/08/05 07:37:14;;;;;;;3.88;1.73;;;20.00;99.90;;;;;;5037178;28;20048;-78
2023/08/05 07:39:46;;;;;;;2.58;1.10;;;19.90;99.90;;;;;;5035150;28;20044;-81
2023/08/05 07:42:14;;;;;;;3.00;1.65;;;20.30;99.90;;;;;;5034455;28;20044;-80
2023/08/05 07:44:42;;;;;;;2.63;1.00;;;21.10;99.90;;;;;;5037097;28;20049;-80
2023/08/05 07:47:09;;;;;;;1.48;1.00;;;20.90;99.90;;;;;;5037018;28;20037;-80
2023/08/05 07:49:37;;;;;;;2.78;1.00;;;20.80;99.90;;;;;;5040322;28;20033;-83
2023/08/05 07:52:04;;;;;;;4.07;2.03;;;20.70;99.90;;;;;;5037888;28;20033;-84
2023/08/05 07:54:30;;;;;;;2.42;1.00;;;20.20;99.90;;;;;;5036975;28;20069;-81
2023/08/05 07:56:58;;;;;;;2.60;1.77;;;19.90;99.90;;;;;;5038137;28;20060;-82
2023/08/05 07:59:26;;;;;;;3.60;1.17;;;20.40;99.90;;;;;;5034942;28;20056;-82
2023/08/05 08:01:54;;;;;;;4.28;1.45;;;20.60;99.90;;;;;;5036767;28;20041;-81
2023/08/05 08:04:20;;;;;;;3.45;1.10;;;20.80;99.90;;;;;;5035684;28;20041;-81
2023/08/05 08:06:47;;;;;;;2.72;0.70;;;21.70;36.90;;;;;;5033647;28;20025;-81
2023/08/05 08:09:13;;;;;;;2.88;1.45;;;21.90;14.60;;;;;;5035020;28;20048;-82
2023/08/05 08:11:40;;;;;;;5.65;1.30;;;21.50;83.00;;;;;;5039886;28;20033;-83
2023/08/05 08:14:06;;;;;;;3.83;1.55;;;21.10;56.40;;;;;;5040694;28;20025;-79
2023/08/05 08:16:32;;;;;;;2.72;1.23;;;20.50;97.70;;;;;;5040867;28;20469;-81
2023/08/05 08:18:59;;;;;;;2.47;1.42;;;20.10;99.90;;;;;;5038430;28;20037;-80
2023/08/05 08:21:25;;;;;;;2.70;1.70;;;20.70;99.90;;;;;;5047191;28;20060;-80
2023/08/05 08:23:51;;;;;;;2.47;1.40;;;21.60;92.00;;;;;;5031675;28;20044;-81
2023/08/05 08:26:17;;;;;;;3.78;2.10;;;22.60;1.00;;;;;;5038629;28;20037;-80
2023/08/05 08:28:44;;;;;;;3.60;1.95;;;22.60;1.00;;;;;;5039486;28;20053;-80
2023/08/05 08:31:10;;;;;;;5.97;2.72;;;21.10;29.60;;;;;;5035615;28;20340;-80
2023/08/05 08:33:39;;;;;;;6.00;2.00;;;20.40;99.90;;;;;;5035127;28;20398;-83
2023/08/05 08:36:05;;;;;;;6.30;2.65;;;21.10;99.90;;;;;;5034633;28;20030;-80
2023/08/05 08:38:31;;;;;;;4.65;2.58;;;21.80;1.00;;;;;;5033748;28;20388;-81
2023/08/05 08:40:58;;;;;;;7.15;3.47;;;20.90;36.10;;;;;;5034714;28;20064;-81
2023/08/05 08:43:26;;;;;;;5.50;2.97;;;20.50;97.20;;;;;;5032531;28;20053;-80
2023/08/05 08:45:54;;;;;;;7.28;3.47;;;20.10;99.90;;;;;;5036273;28;20135;-80
2023/08/05 08:48:21;;;;;;;4.95;3.55;;;20.70;99.90;;;;;;5033504;28;20029;-80
2023/08/05 08:50:48;;;;;;;6.88;4.00;;;21.10;74.90;;;;;;5033099;28;20352;-79
2023/08/05 08:53:14;;;;;;;6.82;3.47;;;21.00;22.40;;;;;;5038538;28;20041;-81
2023/08/05 08:55:42;;;;;;;7.45;3.40;;;21.10;49.80;;;;;;5037051;28;20033;-83
2023/08/05 08:58:09;;;;;;;6.88;2.88;;;21.10;17.30;;;;;;5037000;28;20037;-80
2023/08/05 09:00:36;;;;;;;6.10;3.45;;;22.10;1.00;;;;;;5038130;28;20049;-81
2023/08/05 09:03:05;;;;;;;3.60;2.80;;;23.40;1.00;;;;;;5038813;28;20403;-80
2023/08/05 09:05:46;;;;;;;4.18;2.60;;;23.60;1.00;;;;;;5029806;28;20049;-81
2023/08/05 09:08:12;;;;;;;4.55;3.15;;;23.40;1.00;;;;;;5033529;28;20048;-80
2023/08/05 09:10:39;;;;;;;3.80;2.55;;;23.40;1.00;;;;;;5030820;28;20029;-82
2023/08/05 09:13:06;;;;;;;3.47;2.55;;;23.00;1.00;;;;;;5034390;28;20033;-80
2023/08/05 09:15:39;;;;;;;6.93;2.95;;;23.30;1.00;;;;;;5047314;28;20045;-80
2023/08/05 09:18:08;;;;;;;5.05;2.92;;;23.70;1.00;;;;;;5037067;28;20467;-79
2023/08/05 09:20:36;;;;;;;6.65;3.58;;;22.60;1.00;;;;;;5021823;28;20390;-80
2023/08/05 09:23:07;;;;;;;8.85;3.60;;;21.80;1.00;;;;;;5038395;28;20058;-81
2023/08/05 09:25:39;;;;;;;2.85;1.70;;;21.20;7.70;;;;;;5024824;28;20029;-81
2023/08/05 09:28:06;;;;;;;4.28;2.58;;;21.40;1.00;;;;;;5026455;28;20033;-79
2023/08/05 09:30:33;;;;;;;2.95;1.90;;;21.30;1.00;;;;;;5030024;28;20045;-80
2023/08/05 09:32:59;;;;;;;4.50;2.38;;;21.70;1.00;;;;;;5027736;28;20405;-80
2023/08/05 09:35:26;;;;;;;2.65;1.40;;;22.70;1.00;;;;;;5029999;28;20026;-80
2023/08/05 09:37:54;;;;;;;3.13;1.92;;;22.30;1.00;;;;;;5032118;28;20038;-81
2023/08/05 09:40:24;;;;;;;2.72;2.10;;;22.00;1.00;;;;;;5030744;28;20052;-79
2023/08/05 09:42:54;;;;;;;4.15;2.00;;;22.30;1.00;;;;;;5034488;28;20048;-80
2023/08/05 09:45:21;;;;;;;9.82;4.28;;;22.80;1.00;;;;;;5035822;28;20041;-81
2023/08/05 09:47:49;;;;;;;4.30;1.63;;;22.60;1.00;;;;;;5035744;28;20749;-81
2023/08/05 09:50:17;;;;;;;4.47;1.70;;;22.20;1.00;;;;;;5033783;28;20026;-80
2023/08/05 09:52:49;;;;;;;4.40;1.58;;;22.10;1.00;;;;;;5031754;28;20399;-81
2023/08/05 09:55:17;;;;;;;5.18;1.65;;;21.70;1.00;;;;;;5052377;28;20038;-79
2023/08/05 09:57:43;;;;;;;3.10;1.73;;;21.60;1.00;;;;;;5036539;28;20371;-82
2023/08/05 10:00:11;;;;;;;3.10;1.30;;;22.20;1.00;;;;;;5034240;28;20054;-81
2023/08/05 10:02:44;;;;;;;1.90;1.13;;;23.00;1.00;;;;;;5036043;28;20052;-80
2023/08/05 10:05:12;;;;;;;3.17;1.45;;;23.70;1.00;;;;;;5040149;28;20037;-78
2023/08/05 10:07:40;;;;;;;14.65;12.25;;;23.20;1.00;;;;;;5035526;28;20387;-84
2023/08/05 10:10:16;;;;;;;2.80;1.50;;;22.80;1.00;;;;;;5035150;28;20038;-79
2023/08/05 10:12:57;;;;;;;2.92;1.33;;;22.10;1.00;;;;;;5033535;28;20356;-82
2023/08/05 10:15:31;;;;;;;2.30;1.52;;;21.30;1.00;;;;;;5033006;28;20037;-80
2023/08/05 10:17:57;;;;;;;3.38;1.70;;;21.00;1.00;;;;;;5033550;28;20025;-80
2023/08/05 10:20:23;;;;;;;3.53;1.88;;;20.80;1.00;;;;;;5035462;28;20037;-79
2023/08/05 10:23:07;;;;;;;2.05;1.25;;;21.10;1.00;;;;;;5037870;28;20044;-79
2023/08/05 10:25:50;;;;;;;2.78;1.38;;;21.00;1.00;;;;;;5040613;28;20458;-80
2023/08/05 10:28:41;;;;;;;4.28;1.20;;;21.10;1.00;;;;;;5032565;28;20383;-81
2023/08/05 10:31:35;;;;;;;2.30;1.30;;;21.30;1.00;;;;;;5029039;28;20490;-83
2023/08/05 10:34:12;;;;;;;2.88;1.02;;;21.60;1.00;;;;;;5037195;28;20037;-81
2023/08/05 10:36:47;;;;;;;2.20;1.10;;;21.60;1.00;;;;;;5034803;28;20033;-79
2023/08/05 10:39:44;;;;;;;3.25;1.42;;;21.60;1.00;;;;;;5039235;28;20033;-82
2023/08/05 10:42:31;;;;;;;4.53;1.48;;;21.50;1.00;;;;;;5038694;28;20063;-79
2023/08/05 10:45:03;;;;;;;2.38;1.48;;;21.80;1.00;;;;;;5054118;28;20046;-80
2023/08/05 10:47:29;;;;;;;2.55;1.50;;;21.70;1.00;;;;;;5039841;28;20034;-85
2023/08/05 10:50:02;;;;;;;2.00;1.10;;;22.10;1.00;;;;;;5045040;28;20029;-87
2023/08/05 10:52:29;;;;;;;1.58;1.00;;;22.60;1.00;;;;;;5035037;28;22051;-86
2023/08/05 10:54:57;;;;;;;1.52;1.00;;;22.60;1.00;;;;;;5034965;28;20040;-86
2023/08/05 10:57:34;;;;;;;4.05;0.95;;;22.60;1.00;;;;;;5036241;28;20034;-86
2023/08/05 11:00:03;;;;;;;2.50;0.73;;;22.70;1.00;;;;;;5043804;28;20061;-81
2023/08/05 11:02:31;;;;;;;1.92;1.08;;;23.10;1.00;;;;;;5045353;28;20048;-81
2023/08/05 11:05:07;;;;;;;4.18;1.60;;;22.90;1.00;;;;;;5035882;28;20052;-83
2023/08/05 11:07:42;;;;;;;2.30;1.10;;;22.90;1.00;;;;;;5031129;28;20030;-84
2023/08/05 11:10:09;;;;;;;3.38;1.58;;;22.80;1.00;;;;;;5051569;28;20036;-83
2023/08/05 11:12:39;;;;;;;3.45;0.90;;;23.30;1.00;;;;;;5038631;28;20352;-83
2023/08/05 11:15:06;;;;;;;3.15;0.98;;;23.40;99.90;;;;;;5032307;28;20026;-84
2023/08/05 11:17:32;;;;;;;2.08;1.23;;;23.60;1.00;;;;;;5038957;28;20052;-81
2023/08/05 11:19:59;;;;;;;1.75;0.73;;;24.30;99.90;;;;;;5040095;28;20030;-83
2023/08/05 11:22:30;;;;;;;1.73;1.17;;;23.90;99.90;;;;;;5038350;28;20045;-85
2023/08/05 11:25:00;;;;;;;2.42;1.10;;;23.60;99.90;;;;;;5038884;28;20037;-80
2023/08/05 11:27:35;;;;;;;2.72;0.77;;;23.50;99.90;;;;;;5054117;28;20044;-81
2023/08/05 11:30:16;;;;;;;3.15;1.48;;;23.60;99.90;;;;;;5042720;28;20041;-80
2023/08/05 11:32:51;;;;;;;2.35;0.93;;;24.30;99.90;;;;;;5035905;28;20064;-80
2023/08/05 11:35:18;;;;;;;2.03;1.30;;;24.70;99.90;;;;;;5038488;28;20040;-81
2023/08/05 11:37:44;;;;;;;1.83;1.10;;;24.70;99.90;;;;;;5037563;28;20426;-80
2023/08/05 11:40:11;;;;;;;1.77;0.90;;;24.00;99.90;;;;;;5035237;28;20406;-80
2023/08/05 11:42:39;;;;;;;1.13;0.70;;;23.30;99.90;;;;;;5034225;28;20033;-80
2023/08/05 11:45:12;;;;;;;4.35;1.63;;;23.50;99.90;;;;;;5035055;28;20033;-81
2023/08/05 11:47:42;;;;;;;2.38;1.30;;;23.30;99.90;;;;;;5033882;28;20037;-81
2023/08/05 11:50:10;;;;;;;2.17;1.00;;;22.90;1.00;;;;;;5054782;28;20052;-81
2023/08/05 11:52:37;;;;;;;2.33;1.23;;;22.70;1.00;;;;;;5037148;28;20045;-80
2023/08/05 11:55:05;;;;;;;2.63;1.10;;;22.50;1.00;;;;;;5040783;28;20038;-81
2023/08/05 11:57:32;;;;;;;1.88;0.88;;;22.70;1.00;;;;;;5036482;28;20514;-80
2023/08/05 12:00:08;;;;;;;1.25;0.60;;;22.90;99.90;;;;;;5039775;28;20057;-82
2023/08/05 12:02:35;;;;;;;1.73;1.05;;;22.50;99.90;;;;;;5036185;28;20044;-81
2023/08/05 12:05:02;;;;;;;2.15;1.40;;;22.50;1.00;;;;;;5037647;28;20053;-80
2023/08/05 12:07:29;;;;;;;2.72;0.88;;;22.70;1.00;;;;;;5038396;28;20048;-81
2023/08/05 12:10:08;;;;;;;4.50;1.42;;;23.30;1.00;;;;;;5037800;28;20029;-81
2023/08/05 12:12:36;;;;;;;1.63;0.70;;;23.20;1.00;;;;;;5029027;28;20056;-80
2023/08/05 12:15:10;;;;;;;4.63;1.08;;;23.50;99.90;;;;;;5035785;28;20036;-80
2023/08/05 12:17:36;;;;;;;3.00;1.30;;;23.70;99.90;;;;;;5038264;28;20036;-81
2023/08/05 12:20:07;;;;;;;3.25;1.10;;;23.40;99.90;;;;;;5036987;28;20097;-82
2023/08/05 12:22:34;;;;;;;3.50;0.80;;;22.90;99.90;;;;;;5033207;28;20493;-82
2023/08/05 12:25:00;;;;;;;1.40;0.73;;;22.60;1.00;;;;;;5035222;28;20033;-81
2023/08/05 12:27:26;;;;;;;1.60;1.20;;;22.50;1.00;;;;;;5052518;28;20037;-81
2023/08/05 12:29:52;;;;;;;2.38;1.02;;;22.10;1.00;;;;;;5036515;28;20041;-82
2023/08/05 12:32:18;;;;;;;1.45;0.77;;;22.00;1.00;;;;;;5035175;28;20044;-82
2023/08/05 12:34:44;;;;;;;2.88;0.90;;;22.00;1.00;;;;;;5034715;28;20044;-81
2023/08/05 12:37:10;;;;;;;2.70;1.30;;;22.20;1.00;;;;;;5036622;28;20029;-82
2023/08/05 12:39:36;;;;;;;2.13;0.70;;;22.20;1.00;;;;;;5038258;28;20049;-81
2023/08/05 12:42:03;;;;;;;1.63;0.98;;;22.30;1.00;;;;;;5033209;28;20045;-82
2023/08/05 12:44:29;;;;;;;3.35;1.08;;;22.10;1.00;;;;;;5035276;28;20036;-80
2023/08/05 12:46:55;;;;;;;0.80;0.50;;;22.30;1.00;;;;;;5039843;28;20410;-79
2023/08/05 12:49:21;;;;;;;1.48;0.80;;;22.30;1.00;;;;;;5035115;28;20048;-80
2023/08/05 12:51:47;;;;;;;1.70;1.20;;;22.30;1.00;;;;;;5033101;28;20045;-81
2023/08/05 12:54:14;;;;;;;2.33;0.95;;;22.30;1.00;;;;;;5034325;28;20048;-80
2023/08/05 12:56:40;;;;;;;3.38;0.77;;;22.20;1.00;;;;;;5036494;28;20052;-81